»·PEaware :: N112LW KAAT-KFOT

N112LW :: KAAT-KFOT

FLIGHT INFORMATION

Flight Status: Arrived
Operator: Privately registered:
United States
More flights under this callsign
Pilot: Lee W. (44)
Aircraft: PIPER PA-24 COMMANCHE
(PA24)
More flights by this aircraft type
Origin: KAAT Alturas Mun
United States
Destination: KFOT Rohnerville
United States
More flights between these airports :: More routes between these airports
Route: +ASAYE
File this flight plan on PilotEdge
Remarks:
Altitude:
(Current/Filed)
12,000ft
Speed:
(Current/Filed)
150kts
Departed: 29-Apr-12 10:16 AM
Arrived: 29-Apr-12 11:22 AM
Distance/Time
Traveled:
167nm/1:06
Distance/Time
To Go:
Arrived

Flight Plot

Page will automatically refresh every two minutes.

Flight plan parsing failed; only flown route is shown


Map Options




Map Legend


Flown Route
Filed Route
Departure Airport
Arrival Airport
Navaid (VOR, NDB)
Fix

Horizontal Profiles

Position Reports

Time Latitude Longitude Heading Altitude Ground
Speed
29-Apr-12 10:12 41.486755 -120.563272 87 4376ft 0kts
29-Apr-12 10:13 41.486216 -120.562166 153 4376ft 13kts
29-Apr-12 10:14 41.485979 -120.561101 227 4376ft 0kts
29-Apr-12 10:15 41.474489 -120.577043 226 4595ft 118kts
29-Apr-12 10:16 41.457287 -120.619426 243 5559ft 140kts
29-Apr-12 10:17 41.439603 -120.666696 243 6461ft 146kts
29-Apr-12 10:18 41.421179 -120.714830 242 7360ft 145kts
29-Apr-12 10:19 41.402680 -120.762377 242 8256ft 143kts
29-Apr-12 10:20 41.384334 -120.808990 242 9151ft 141kts
29-Apr-12 10:21 41.366389 -120.854208 242 10038ft 137kts
29-Apr-12 10:22 41.348750 -120.898382 241 10928ft 133kts
29-Apr-12 10:23 41.331617 -120.941091 241 11816ft 129kts
29-Apr-12 10:24 41.313583 -120.985965 242 12198ft 156kts
29-Apr-12 10:25 41.291967 -121.040502 242 12191ft 173kts
29-Apr-12 10:26 41.270677 -121.094402 242 12654ft 158kts
29-Apr-12 10:27 41.250116 -121.148333 242 12691ft 173kts
29-Apr-12 10:28 41.227987 -121.205995 242 12690ft 176kts
29-Apr-12 10:29 41.205439 -121.263972 242 12690ft 176kts
29-Apr-12 10:30 41.182800 -121.321656 242 12690ft 176kts
29-Apr-12 10:31 41.159921 -121.379584 242 12690ft 176kts
29-Apr-12 10:32 41.136923 -121.437529 242 12690ft 178kts
29-Apr-12 10:33 41.113812 -121.495435 242 12651ft 181kts
29-Apr-12 10:34 41.090199 -121.555593 246 12593ft 185kts
29-Apr-12 10:35 41.067267 -121.617020 248 12547ft 186kts
29-Apr-12 10:36 41.044304 -121.678626 249 12514ft 187kts
29-Apr-12 10:37 41.021475 -121.739951 249 12509ft 186kts
29-Apr-12 10:38 40.998568 -121.801403 249 12510ft 186kts
29-Apr-12 10:39 40.975555 -121.863020 248 12509ft 187kts
29-Apr-12 10:40 40.952602 -121.924316 249 12510ft 186kts
29-Apr-12 10:41 40.929452 -121.986034 248 12510ft 187kts
29-Apr-12 10:42 40.906658 -122.046661 249 12510ft 188kts
29-Apr-12 10:43 40.883840 -122.107332 248 12509ft 189kts
29-Apr-12 10:44 40.862555 -122.167099 240 12507ft 171kts
29-Apr-12 10:45 40.841212 -122.223749 248 12514ft 181kts
29-Apr-12 10:46 40.818503 -122.284817 248 12511ft 187kts
29-Apr-12 10:47 40.795386 -122.346345 248 12510ft 187kts
29-Apr-12 10:48 40.773816 -122.408145 256 12510ft 184kts
29-Apr-12 10:49 40.757504 -122.471580 256 12511ft 184kts
29-Apr-12 10:50 40.741027 -122.535601 257 12511ft 184kts
29-Apr-12 10:51 40.724639 -122.599144 256 12511ft 184kts
29-Apr-12 10:52 40.708195 -122.662830 256 12511ft 184kts
29-Apr-12 10:53 40.691832 -122.725985 256 12511ft 185kts
29-Apr-12 10:54 40.672361 -122.801011 256 12511ft 186kts
29-Apr-12 10:55 40.658372 -122.854784 256 12512ft 186kts
29-Apr-12 10:56 40.644878 -122.906138 256 12508ft 178kts
29-Apr-12 10:57 40.628403 -122.969274 256 12512ft 184kts
29-Apr-12 10:58 40.611868 -123.032416 256 12511ft 184kts
29-Apr-12 10:59 40.594944 -123.096981 256 12197ft 195kts
29-Apr-12 11:00 40.577302 -123.163796 254 11452ft 201kts
29-Apr-12 11:01 40.558820 -123.232611 252 10801ft 198kts
29-Apr-12 11:02 40.540541 -123.299839 251 10215ft 194kts
29-Apr-12 11:03 40.522546 -123.365478 249 9693ft 190kts
29-Apr-12 11:04 40.504514 -123.430642 249 9166ft 189kts
29-Apr-12 11:05 40.486693 -123.494836 249 8662ft 188kts
29-Apr-12 11:06 40.478433 -123.560614 279 8181ft 187kts
29-Apr-12 11:07 40.487266 -123.625852 280 7957ft 172kts
29-Apr-12 11:08 40.495535 -123.687663 280 7503ft 173kts
29-Apr-12 11:09 40.503784 -123.749949 280 7099ft 173kts
29-Apr-12 11:10 40.511959 -123.812219 280 6740ft 171kts
29-Apr-12 11:11 40.510005 -123.873457 264 6680ft 171kts
29-Apr-12 11:12 40.503705 -123.934149 264 6678ft 159kts
29-Apr-12 11:13 40.497653 -123.991352 264 6208ft 159kts
29-Apr-12 11:14 40.507303 -124.036945 306 4972ft 130kts
29-Apr-12 11:15 40.528367 -124.074711 306 3820ft 109kts
29-Apr-12 11:16 40.545065 -124.107586 302 2219ft 110kts
29-Apr-12 11:17 40.550613 -124.137129 220 1487ft 96kts
29-Apr-12 11:18 40.531070 -124.120155 116 1032ft 91kts
29-Apr-12 11:19 40.544315 -124.099227 352 764ft 85kts
29-Apr-12 11:20 40.548377 -124.122785 297 526ft 63kts
29-Apr-12 11:21 40.551447 -124.128330 122 394ft 13kts
29-Apr-12 11:22 40.550824 -124.126778 208 394ft 0kts
29-Apr-12 11:23 40.550816 -124.126783 211 394ft 1kts
29-Apr-12 11:24 40.553646 -124.132217 306 430ft 89kts
29-Apr-12 11:25 40.540420 -124.135768 108 710ft 111kts
29-Apr-12 11:26 40.554263 -124.133336 305 394ft 68kts
29-Apr-12 11:27 40.555341 -124.135041 306 394ft 0kts
29-Apr-12 11:28 40.555349 -124.135054 308 394ft 2kts
29-Apr-12 11:29 40.555495 -124.133756 125 394ft 0kts
29-Apr-12 11:30 40.555495 -124.133756 125 394ft 0kts
29-Apr-12 11:31 40.555495 -124.133756 125 394ft 0kts
29-Apr-12 11:32 40.555495 -124.133756 125 394ft 0kts
29-Apr-12 11:33 40.550060 -124.123524 116 563ft 109kts
29-Apr-12 11:35 40.596316 -124.070169 36 2602ft 148kts

Navigation Log

Ident Type
Flight plan parsing failed, navigation log unavailable